createdAt,value
2022-10-17T00:00:33.265Z,99997.00
2022-10-17T00:03:01.542Z,99992.28
2022-10-17T00:05:31.201Z,99998.59
2022-10-17T00:07:59.322Z,99994.38
2022-10-17T00:10:27.387Z,99990.97
2022-10-17T00:12:55.297Z,99985.28
2022-10-17T00:15:23.573Z,99987.91
2022-10-17T00:17:51.830Z,99982.47
2022-10-17T00:20:20.110Z,99988.78
2022-10-17T00:22:49.556Z,99971.56
2022-10-17T00:25:17.979Z,99971.41
2022-10-17T00:27:46.371Z,99969.16
2022-10-17T00:30:16.249Z,99967.75
2022-10-17T00:32:44.681Z,99956.84
2022-10-17T00:35:13.309Z,99955.59
2022-10-17T00:37:41.447Z,99947.47
2022-10-17T00:43:11.258Z,99877.75
2022-10-17T00:45:41.001Z,99932.88
2022-10-17T00:48:11.709Z,99952.50
2022-10-17T00:50:40.764Z,99937.94
2022-10-17T00:53:10.524Z,99941.97
2022-10-17T00:55:40.530Z,99930.69
2022-10-17T00:58:08.589Z,99925.41
2022-10-17T01:00:37.267Z,99928.13
2022-10-17T01:03:06.919Z,99930.63
2022-10-17T01:05:35.795Z,99915.47
2022-10-17T01:08:04.246Z,99924.38
2022-10-17T01:10:35.760Z,99915.53
2022-10-17T01:13:10.741Z,99913.03
2022-10-17T01:15:46.822Z,99899.88
2022-10-17T01:18:19.675Z,99897.66
2022-10-17T01:20:58.121Z,99907.19
2022-10-17T01:23:30.409Z,99903.19
2022-10-17T01:26:03.208Z,99884.22
2022-10-17T01:28:40.125Z,99879.53
2022-10-17T01:31:13.467Z,99872.41
2022-10-17T01:33:47.343Z,99863.28
2022-10-17T01:36:19.985Z,99864.91
2022-10-17T01:38:50.647Z,99874.03
2022-10-17T01:41:25.702Z,99857.34
2022-10-17T01:43:56.474Z,99851.31
2022-10-17T01:46:29.738Z,99870.16
2022-10-17T01:48:59.657Z,99863.50
2022-10-17T01:51:31.762Z,99860.28
2022-10-17T01:54:02.197Z,99851.78
2022-10-17T01:56:31.871Z,99853.53
2022-10-17T01:59:02.239Z,99856.41
2022-10-17T02:01:32.175Z,99855.50
2022-10-17T02:04:01.607Z,99840.75
2022-10-17T02:06:29.900Z,99833.25
2022-10-17T02:08:57.980Z,99836.78
2022-10-17T02:11:27.767Z,99846.53
2022-10-17T02:14:05.131Z,99850.91
2022-10-17T02:16:40.387Z,99846.53
2022-10-17T02:19:23.209Z,99856.59
2022-10-17T02:21:55.626Z,99849.88
2022-10-17T02:24:31.090Z,99834.28
2022-10-17T02:27:05.457Z,99842.31
2022-10-17T02:29:35.990Z,99837.28
2022-10-17T02:32:08.598Z,99843.41
2022-10-17T02:34:40.046Z,99835.16
2022-10-17T02:37:09.823Z,99820.16
2022-10-17T02:39:40.017Z,99835.09
2022-10-17T02:42:10.790Z,99825.13
2022-10-17T02:44:39.443Z,99844.16
2022-10-17T02:47:12.999Z,99842.63
2022-10-17T02:49:43.284Z,99826.22
2022-10-17T02:52:13.527Z,99821.09
2022-10-17T02:54:43.956Z,99812.31
2022-10-17T02:57:14.100Z,99808.28
2022-10-17T02:59:43.083Z,99812.09
2022-10-17T03:02:12.781Z,99809.16
2022-10-17T03:04:44.528Z,99799.78
2022-10-17T03:07:12.643Z,99809.38
2022-10-17T03:09:40.775Z,99812.94
2022-10-17T03:12:09.180Z,99797.53
2022-10-17T03:14:37.230Z,99795.03
2022-10-17T03:17:05.669Z,99800.53
2022-10-17T03:19:35.532Z,99795.94
2022-10-17T03:22:03.715Z,99788.63
2022-10-17T03:24:31.757Z,99776.09
2022-10-17T03:26:59.800Z,99771.63
2022-10-17T03:29:27.853Z,99757.63
2022-10-17T03:31:55.830Z,99750.47
2022-10-17T03:34:24.054Z,99761.25
2022-10-17T03:36:53.395Z,99754.94
2022-10-17T03:39:21.467Z,99759.75
2022-10-17T03:41:50.208Z,99751.06
2022-10-17T03:44:18.273Z,99749.28
2022-10-17T03:46:46.223Z,99744.25
2022-10-17T03:49:14.315Z,99750.56
2022-10-17T03:51:42.301Z,99737.13
2022-10-17T03:54:11.894Z,99749.97
2022-10-17T03:56:39.862Z,99739.56
2022-10-17T03:59:08.093Z,99743.81
2022-10-17T04:01:36.154Z,99737.53
2022-10-17T04:04:04.175Z,99726.31
2022-10-17T04:06:32.339Z,99737.88
2022-10-17T04:09:00.955Z,99722.41
2022-10-17T04:11:30.683Z,99715.00
2022-10-17T04:13:59.542Z,99716.03
2022-10-17T04:16:28.394Z,99723.50
2022-10-17T04:18:57.387Z,99727.34
2022-10-17T04:21:26.889Z,99733.16
2022-10-17T04:23:56.232Z,99734.47
2022-10-17T04:26:25.023Z,99724.22
2022-10-17T04:28:55.083Z,99719.78
2022-10-17T04:31:23.550Z,99712.78
2022-10-17T04:33:52.104Z,99704.88
2022-10-17T04:36:23.392Z,99716.38
2022-10-17T04:38:51.490Z,99694.00
2022-10-17T04:41:21.190Z,99702.06
2022-10-17T04:43:51.227Z,99704.94
2022-10-17T04:46:21.305Z,99700.56
2022-10-17T04:48:49.609Z,99692.31
2022-10-17T04:51:20.745Z,99685.13
2022-10-17T04:53:51.863Z,99683.06
2022-10-17T04:56:20.580Z,99690.28
2022-10-17T04:58:49.718Z,99700.50
2022-10-17T05:01:18.785Z,99689.81
2022-10-17T05:03:53.804Z,99683.06
2022-10-17T05:10:03.009Z,99680.88
2022-10-17T05:12:40.108Z,99677.22
2022-10-17T05:20:48.390Z,99684.81
2022-10-17T05:23:21.552Z,99684.19
2022-10-17T05:25:50.003Z,99672.16
2022-10-17T05:28:19.658Z,99646.66
2022-10-17T05:30:47.734Z,99646.44
2022-10-17T05:33:16.133Z,99658.81
2022-10-17T05:35:44.469Z,99663.31
2022-10-17T05:38:12.586Z,99668.47
2022-10-17T05:40:40.936Z,99661.09
2022-10-17T05:43:09.174Z,99659.47
2022-10-17T05:45:39.145Z,99643.59
2022-10-17T05:48:09.206Z,99660.56
2022-10-17T05:50:37.888Z,99643.06
2022-10-17T05:53:06.259Z,99639.00
2022-10-17T05:55:34.417Z,99638.63
2022-10-17T05:58:02.963Z,99633.59
2022-10-17T06:00:31.181Z,99638.06
2022-10-17T06:03:01.008Z,99640.09
2022-10-17T06:05:29.093Z,99649.00
2022-10-17T06:08:01.081Z,99634.72
2022-10-17T06:10:30.525Z,99638.25
2022-10-17T06:12:58.476Z,99633.28
2022-10-17T06:15:26.727Z,99633.03
2022-10-17T06:17:55.167Z,99631.63
2022-10-17T06:20:24.766Z,99629.75
2022-10-17T06:22:53.278Z,99647.19
2022-10-17T06:25:21.584Z,99634.28
2022-10-17T06:27:49.713Z,99639.00
2022-10-17T06:30:18.503Z,99643.41
2022-10-17T06:32:46.711Z,99641.97
2022-10-17T06:35:15.300Z,99636.91
2022-10-17T06:37:45.167Z,99637.47
2022-10-17T06:40:16.044Z,99638.97
2022-10-17T06:42:44.798Z,99633.63
2022-10-17T06:45:13.335Z,99618.69
2022-10-17T06:47:41.540Z,99610.28
2022-10-17T06:50:10.623Z,99609.03
2022-10-17T06:52:39.490Z,99593.56
2022-10-17T06:55:10.498Z,99583.31
2022-10-17T06:57:38.573Z,99597.16
2022-10-17T07:00:07.522Z,99593.81
2022-10-17T07:02:35.751Z,99578.94
2022-10-17T07:05:04.547Z,99601.56
2022-10-17T07:07:33.617Z,99586.56
2022-10-17T07:10:02.251Z,99580.44
2022-10-17T07:12:33.140Z,99589.69
2022-10-17T07:15:01.437Z,99583.22
2022-10-17T07:17:31.354Z,99580.75
2022-10-17T07:19:59.713Z,99592.50
2022-10-17T07:22:28.056Z,99591.34
2022-10-17T07:24:56.699Z,99584.91
2022-10-17T07:27:25.292Z,99565.78
2022-10-17T07:29:55.282Z,99581.81
2022-10-17T07:32:23.646Z,99590.34
2022-10-17T07:34:52.297Z,99575.09
2022-10-17T07:37:20.548Z,99568.94
2022-10-17T07:39:48.920Z,99577.44
2022-10-17T07:42:17.524Z,99587.56
2022-10-17T07:44:47.946Z,99572.81
2022-10-17T07:47:17.643Z,99591.38
2022-10-17T07:49:45.952Z,99590.22
2022-10-17T07:52:14.711Z,99589.41
2022-10-17T07:54:43.109Z,99583.41
2022-10-17T07:57:11.302Z,99593.91
2022-10-17T07:59:39.885Z,99586.47
2022-10-17T08:02:08.625Z,99590.25
2022-10-17T08:04:39.435Z,99578.38
2022-10-17T08:07:20.913Z,99578.38
2022-10-17T08:09:50.860Z,99569.19
2022-10-17T08:12:19.143Z,99562.72
2022-10-17T08:14:48.273Z,99545.47
2022-10-17T08:17:16.641Z,99553.72
2022-10-17T08:19:46.701Z,99561.66
2022-10-17T08:22:14.746Z,99550.16
2022-10-17T08:24:43.417Z,99556.00
2022-10-17T08:27:13.811Z,99538.34
2022-10-17T08:29:53.235Z,99528.66
2022-10-17T08:32:21.885Z,99543.03
2022-10-17T08:34:51.577Z,99558.09
2022-10-17T08:37:20.310Z,99577.69
2022-10-17T08:39:48.591Z,99578.38
2022-10-17T08:42:36.719Z,99572.47
2022-10-17T08:45:11.293Z,99552.56
2022-10-17T08:47:41.294Z,99554.56
2022-10-17T08:50:14.216Z,99560.19
2022-10-17T08:52:45.310Z,99563.47
2022-10-17T08:55:16.878Z,99565.25
2022-10-17T08:57:45.347Z,99581.19
2022-10-17T09:00:16.820Z,99598.94
2022-10-17T09:02:51.023Z,99585.88
2022-10-17T09:05:34.521Z,99576.38
2022-10-17T09:08:09.008Z,99577.16
2022-10-17T09:10:43.956Z,99580.25
2022-10-17T09:13:18.965Z,99564.66
2022-10-17T09:15:58.108Z,99551.91
2022-10-17T09:18:29.248Z,99556.47
2022-10-17T09:21:01.817Z,99564.22
2022-10-17T09:23:32.702Z,99561.91
2022-10-17T09:26:02.164Z,99552.28
2022-10-17T09:28:33.068Z,99558.41
2022-10-17T09:31:03.027Z,99563.47
2022-10-17T09:33:42.604Z,99578.84
2022-10-17T09:36:24.657Z,99557.94
2022-10-17T09:38:54.452Z,99562.16
2022-10-17T09:41:44.342Z,99553.63
2022-10-17T09:44:18.354Z,99532.09
2022-10-17T09:46:52.482Z,99545.97
2022-10-17T09:49:25.098Z,99524.91
2022-10-17T09:51:54.898Z,99540.63
2022-10-17T09:54:25.997Z,99524.56
2022-10-17T09:57:01.765Z,99528.44
2022-10-17T09:59:34.308Z,99530.22
2022-10-17T10:02:17.853Z,99534.63
2022-10-17T10:05:05.523Z,99520.53
2022-10-17T10:07:37.263Z,99521.38
2022-10-17T10:10:07.572Z,99507.31
2022-10-17T10:12:37.196Z,99502.38
2022-10-17T10:15:28.139Z,99501.09
2022-10-17T10:17:56.417Z,99498.69
2022-10-17T10:20:29.981Z,99503.06
2022-10-17T10:23:19.753Z,99495.00
2022-10-17T10:25:54.497Z,99498.38
2022-10-17T10:28:25.926Z,99493.41
2022-10-17T10:30:54.890Z,99489.69
2022-10-17T10:33:24.005Z,99485.31
2022-10-17T10:35:59.133Z,99486.50
2022-10-17T10:38:27.620Z,99474.47
2022-10-17T10:41:07.608Z,99471.75
2022-10-17T10:43:39.483Z,99481.38
2022-10-17T10:46:17.844Z,99479.66
2022-10-17T10:48:52.148Z,99483.59
2022-10-17T10:51:23.078Z,99472.06
2022-10-17T10:53:54.778Z,99485.38
2022-10-17T10:56:26.981Z,99470.88
2022-10-17T10:58:57.491Z,99469.13
2022-10-17T11:01:31.235Z,99457.50
2022-10-17T11:04:08.049Z,99457.41
2022-10-17T11:06:38.341Z,99454.59
2022-10-17T11:09:19.183Z,99451.03
2022-10-17T11:11:50.203Z,99464.72
2022-10-17T11:17:10.394Z,99461.59
2022-10-17T11:19:41.418Z,99450.34
2022-10-17T11:22:13.056Z,99449.22
2022-10-17T11:24:44.533Z,99440.63
2022-10-17T11:27:12.991Z,99453.47
2022-10-17T11:29:42.948Z,99424.13
2022-10-17T11:32:15.209Z,99432.44
2022-10-17T11:34:45.777Z,99458.16
2022-10-17T11:37:16.400Z,99443.53
2022-10-17T11:39:49.062Z,99449.97
2022-10-17T11:42:19.061Z,99443.94
2022-10-17T11:44:47.478Z,99458.66
2022-10-17T11:47:29.454Z,99436.63
2022-10-17T11:52:56.529Z,99423.59
2022-10-17T11:55:25.802Z,99422.00
2022-10-17T11:57:58.608Z,99420.63
2022-10-17T12:00:30.897Z,99418.63
2022-10-17T12:03:06.840Z,99414.06
2022-10-17T12:05:41.095Z,99406.44
2022-10-17T12:08:14.765Z,99404.00
2022-10-17T12:10:47.357Z,99396.16
2022-10-17T12:13:42.681Z,99391.88
2022-10-17T12:16:30.016Z,99391.53
2022-10-17T12:19:13.345Z,99386.78
2022-10-17T12:21:56.814Z,99387.47
2022-10-17T12:24:31.361Z,99387.66
2022-10-17T12:26:59.881Z,99390.38
2022-10-17T12:29:30.409Z,99380.28
2022-10-17T12:32:11.431Z,99377.00
2022-10-17T12:34:40.425Z,99379.59
2022-10-17T12:37:15.178Z,99372.44
2022-10-17T12:39:43.909Z,99383.75
2022-10-17T12:42:30.839Z,99372.94
2022-10-17T12:44:59.657Z,99380.94
2022-10-17T12:47:38.588Z,99386.97
2022-10-17T12:50:22.391Z,99409.56
2022-10-17T12:52:59.796Z,99404.94
2022-10-17T12:55:28.345Z,99393.56
2022-10-17T12:57:58.865Z,99396.44
2022-10-17T13:00:30.951Z,99402.91
2022-10-17T13:03:04.975Z,99420.50
2022-10-17T13:05:34.729Z,99423.66
2022-10-17T13:08:06.516Z,99434.97
2022-10-17T13:10:36.489Z,99440.16
2022-10-17T13:13:08.474Z,99435.16
2022-10-17T13:15:37.710Z,99446.16
2022-10-17T13:18:06.638Z,99473.78
2022-10-17T13:20:34.880Z,99478.44
2022-10-17T13:23:04.933Z,99490.31
2022-10-17T13:25:36.512Z,99506.34
2022-10-17T13:28:09.179Z,99494.00
2022-10-17T13:30:40.730Z,99496.25
2022-10-17T13:33:20.354Z,99494.03
2022-10-17T13:36:05.682Z,99492.50
2022-10-17T13:38:40.300Z,99480.50
2022-10-17T13:41:34.845Z,99480.91
2022-10-17T13:44:03.293Z,99483.22
2022-10-17T13:46:37.940Z,99479.69
2022-10-17T13:49:11.790Z,99473.91
2022-10-17T13:51:43.958Z,99476.25
2022-10-17T13:54:20.956Z,99484.75
2022-10-17T13:56:56.802Z,99463.44
2022-10-17T13:59:26.440Z,99450.22
2022-10-17T14:01:56.056Z,99433.94
2022-10-17T14:04:24.091Z,99439.91
2022-10-17T14:06:52.547Z,99437.81
2022-10-17T14:09:25.596Z,99430.31
2022-10-17T14:12:02.402Z,99427.44
2022-10-17T14:14:46.060Z,99421.88
2022-10-17T14:17:23.334Z,99422.13
2022-10-17T14:20:05.951Z,99422.13
2022-10-17T14:22:42.808Z,99426.56
2022-10-17T14:25:25.847Z,99416.78
2022-10-17T14:28:02.514Z,99429.22
2022-10-17T14:33:25.401Z,99417.63
2022-10-17T14:35:55.090Z,99423.19
2022-10-17T14:38:24.012Z,99429.22
2022-10-17T14:40:53.430Z,99428.63
2022-10-17T14:43:24.291Z,99442.34
2022-10-17T14:45:53.033Z,99434.56
2022-10-17T14:48:23.357Z,99422.69
2022-10-17T14:51:06.222Z,99439.31
2022-10-17T14:53:34.660Z,99433.56
2022-10-17T14:56:04.341Z,99437.06
2022-10-17T14:58:34.871Z,99450.31
2022-10-17T15:01:03.573Z,99444.94
2022-10-17T15:03:32.098Z,99434.50
2022-10-17T15:06:10.784Z,99420.00
2022-10-17T15:08:39.329Z,99437.78
2022-10-17T15:11:07.608Z,99440.63
2022-10-17T15:13:42.166Z,99443.84
2022-10-17T15:16:16.791Z,99453.06
2022-10-17T15:18:44.973Z,99457.38
2022-10-17T15:21:33.815Z,99455.47
2022-10-17T15:24:04.873Z,99463.91
2022-10-17T15:26:34.309Z,99445.19
2022-10-17T15:29:03.874Z,99451.44
2022-10-17T15:31:33.214Z,99463.97
2022-10-17T15:34:01.577Z,99466.66
2022-10-17T15:36:30.940Z,99463.50
2022-10-17T15:39:00.440Z,99476.56
2022-10-17T15:41:29.981Z,99456.69
2022-10-17T15:43:58.521Z,99463.66
2022-10-17T15:46:29.374Z,99450.63
2022-10-17T15:48:58.267Z,99454.88
2022-10-17T15:51:26.483Z,99455.56
2022-10-17T15:53:54.751Z,99467.16
2022-10-17T15:56:24.553Z,99468.72
2022-10-17T15:58:52.722Z,99466.44
2022-10-17T16:01:22.812Z,99451.59
2022-10-17T16:03:53.097Z,99465.25
2022-10-17T16:06:21.690Z,99459.81
2022-10-17T16:08:50.550Z,99443.59
2022-10-17T16:11:20.991Z,99453.69
2022-10-17T16:13:51.560Z,99451.81
2022-10-17T16:16:20.889Z,99447.97
2022-10-17T16:18:49.353Z,99447.34
2022-10-17T16:21:20.022Z,99461.88
2022-10-17T16:23:48.094Z,99445.22
2022-10-17T16:26:16.566Z,99455.91
2022-10-17T16:28:46.164Z,99464.09
2022-10-17T16:34:14.932Z,99464.22
2022-10-17T16:36:44.634Z,99451.59
2022-10-17T16:39:12.750Z,99477.47
2022-10-17T16:41:41.172Z,99476.91
2022-10-17T16:44:13.767Z,99475.31
2022-10-17T16:46:42.142Z,99484.75
2022-10-17T16:49:12.429Z,99489.53
2022-10-17T16:51:40.815Z,99495.66
2022-10-17T16:54:10.547Z,99474.69
2022-10-17T16:56:38.864Z,99476.94
2022-10-17T16:59:07.191Z,99482.03
2022-10-17T17:01:35.852Z,99475.16
2022-10-17T17:04:05.188Z,99495.13
2022-10-17T17:06:33.694Z,99488.44
2022-10-17T17:09:04.777Z,99480.41
2022-10-17T17:11:34.677Z,99483.72
2022-10-17T17:14:03.347Z,99479.13
2022-10-17T17:16:33.896Z,99501.03
2022-10-17T17:19:03.263Z,99486.47
2022-10-17T17:21:31.936Z,99493.94
2022-10-17T17:24:00.915Z,99483.63
2022-10-17T17:26:31.113Z,99474.91
2022-10-17T17:29:01.508Z,99508.03
2022-10-17T17:31:30.819Z,99477.91
2022-10-17T17:33:59.222Z,99475.78
2022-10-17T17:36:28.851Z,99477.38
2022-10-17T17:38:58.054Z,99468.09
2022-10-17T17:41:29.179Z,99474.19
2022-10-17T17:46:58.919Z,99479.97
2022-10-17T17:49:29.645Z,99486.63
2022-10-17T17:51:59.548Z,99506.44
2022-10-17T17:54:28.019Z,99484.88
2022-10-17T17:56:56.719Z,99491.03
2022-10-17T17:59:25.195Z,99472.53
2022-10-17T18:01:53.626Z,99477.28
2022-10-17T18:04:24.535Z,99467.69
2022-10-17T18:06:52.831Z,99478.94
2022-10-17T18:09:21.904Z,99477.91
2022-10-17T18:11:52.252Z,99491.69
2022-10-17T18:14:23.942Z,99505.16
2022-10-17T18:16:52.653Z,99489.53
2022-10-17T18:19:21.055Z,99503.63
2022-10-17T18:21:50.916Z,99481.50
2022-10-17T18:24:19.098Z,99493.44
2022-10-17T18:26:47.300Z,99493.66
2022-10-17T18:29:15.645Z,99494.22
2022-10-17T18:31:43.954Z,99488.28
2022-10-17T18:34:12.088Z,99491.28
2022-10-17T18:36:40.415Z,99488.44
2022-10-17T18:39:09.901Z,99486.66
2022-10-17T18:41:38.080Z,99496.31
2022-10-17T18:44:33.352Z,99493.72
2022-10-17T18:47:04.109Z,99499.63
2022-10-17T18:49:32.776Z,99512.97
2022-10-17T18:52:01.269Z,99507.38
2022-10-17T18:54:33.829Z,99504.38
2022-10-17T18:57:02.668Z,99513.66
2022-10-17T18:59:31.080Z,99504.72
2022-10-17T19:01:59.745Z,99514.44
2022-10-17T19:04:28.115Z,99518.69
2022-10-17T19:06:56.844Z,99517.59
2022-10-17T19:09:25.450Z,99518.06
2022-10-17T19:11:56.657Z,99518.56
2022-10-17T19:14:26.613Z,99502.66
2022-10-17T19:16:55.282Z,99510.34
2022-10-17T19:19:24.283Z,99519.13
2022-10-17T19:21:53.443Z,99501.53
2022-10-17T19:24:25.440Z,99510.00
2022-10-17T19:26:56.122Z,99506.50
2022-10-17T19:29:28.816Z,99526.41
2022-10-17T19:31:56.973Z,99504.03
2022-10-17T19:34:25.128Z,99508.56
2022-10-17T19:36:53.634Z,99514.22
2022-10-17T19:39:23.073Z,99515.66
2022-10-17T19:41:51.732Z,99523.28
2022-10-17T19:44:21.635Z,99511.41
2022-10-17T19:46:49.998Z,99514.06
2022-10-17T19:49:18.557Z,99519.56
2022-10-17T19:51:47.069Z,99514.34
2022-10-17T19:54:18.504Z,99506.53
2022-10-17T19:56:46.934Z,99495.38
2022-10-17T19:59:16.165Z,99502.00
2022-10-17T20:01:48.003Z,99518.69
2022-10-17T20:04:16.139Z,99505.63
2022-10-17T20:06:44.941Z,99507.03
2022-10-17T20:09:16.748Z,99507.22
2022-10-17T20:11:46.407Z,99510.13
2022-10-17T20:14:14.879Z,99511.63
2022-10-17T20:16:45.639Z,99508.13
2022-10-17T20:19:15.219Z,99512.13
2022-10-17T20:21:44.042Z,99526.47
2022-10-17T20:24:14.026Z,99513.28
2022-10-17T20:26:42.813Z,99522.03
2022-10-17T20:29:12.840Z,99516.47
2022-10-17T20:31:41.554Z,99532.16
2022-10-17T20:34:11.412Z,99529.09
2022-10-17T20:36:41.428Z,99525.69
2022-10-17T20:39:11.181Z,99531.50
2022-10-17T20:41:39.346Z,99526.28
2022-10-17T20:44:09.296Z,99529.69
2022-10-17T20:46:44.320Z,99539.59
2022-10-17T20:49:17.859Z,99531.38
2022-10-17T20:51:47.548Z,99533.00
2022-10-17T20:54:15.682Z,99548.59
2022-10-17T20:56:43.966Z,99533.44
2022-10-17T20:59:14.029Z,99533.69
2022-10-17T21:01:42.123Z,99539.53
2022-10-17T21:04:40.611Z,99533.09
2022-10-17T21:07:00.666Z,99509.69
2022-10-17T21:09:29.107Z,99535.75
2022-10-17T21:11:57.604Z,99539.69
2022-10-17T21:14:26.499Z,99534.63
2022-10-17T21:16:54.707Z,99534.06
2022-10-17T21:19:23.385Z,99524.22
2022-10-17T21:21:51.812Z,99527.16
2022-10-17T21:24:21.378Z,99519.56
2022-10-17T21:26:55.774Z,99508.13
2022-10-17T21:29:24.706Z,99516.06
2022-10-17T21:31:53.532Z,99511.84
2022-10-17T21:34:22.905Z,99500.69
2022-10-17T21:36:51.201Z,99511.72
2022-10-17T21:39:19.808Z,99509.66
2022-10-17T21:41:49.733Z,99511.81
2022-10-17T21:44:18.880Z,99503.59
2022-10-17T21:46:47.617Z,99510.28
2022-10-17T21:49:16.836Z,99507.66
2022-10-17T21:51:45.611Z,99511.63
2022-10-17T21:54:13.964Z,99511.59
2022-10-17T21:56:42.483Z,99506.78
2022-10-17T21:59:12.964Z,99508.97
2022-10-17T22:01:42.054Z,99499.41
2022-10-17T22:04:12.141Z,99503.09
2022-10-17T22:06:41.355Z,99498.56
2022-10-17T22:09:10.765Z,99499.09
2022-10-17T22:11:38.871Z,99484.56
2022-10-17T22:14:08.968Z,99490.97
2022-10-17T22:16:40.440Z,99497.00
2022-10-17T22:19:09.577Z,99486.41
2022-10-17T22:21:37.895Z,99483.50
2022-10-17T22:24:07.406Z,99486.94
2022-10-17T22:26:36.672Z,99478.25
2022-10-17T22:29:07.252Z,99497.81
2022-10-17T22:31:35.561Z,99484.84
2022-10-17T22:34:06.146Z,99488.81
2022-10-17T22:36:34.319Z,99490.16
2022-10-17T22:39:02.438Z,99487.56
2022-10-17T22:41:31.333Z,99480.66
2022-10-17T22:43:59.684Z,99498.72
2022-10-17T22:46:29.228Z,99479.72
2022-10-17T22:48:57.571Z,99479.16
2022-10-17T22:51:27.155Z,99475.75
2022-10-17T22:53:57.281Z,99470.44
2022-10-17T22:56:27.741Z,99475.25
2022-10-17T22:58:56.016Z,99463.53
2022-10-17T23:01:25.588Z,99469.16
2022-10-17T23:03:57.238Z,99468.31
2022-10-17T23:06:31.499Z,99471.75
2022-10-17T23:08:59.994Z,99460.66
2022-10-17T23:11:28.248Z,99468.81
2022-10-17T23:14:04.263Z,99459.56
2022-10-17T23:16:32.525Z,99463.19
2022-10-17T23:19:01.105Z,99449.94
2022-10-17T23:21:35.946Z,99468.97
2022-10-17T23:24:04.322Z,99455.13
2022-10-17T23:26:32.672Z,99458.56
2022-10-17T23:29:00.818Z,99464.00
2022-10-17T23:31:29.191Z,99463.66
2022-10-17T23:33:57.432Z,99463.84
2022-10-17T23:36:26.078Z,99469.94
2022-10-17T23:38:58.438Z,99459.34
2022-10-17T23:41:27.119Z,99462.69
2022-10-17T23:43:55.189Z,99460.78
2022-10-17T23:46:23.563Z,99470.06
2022-10-17T23:48:51.883Z,99460.16
2022-10-17T23:51:20.020Z,99460.72
2022-10-17T23:53:48.426Z,99455.84
2022-10-17T23:56:18.275Z,99453.75
2022-10-17T23:58:46.348Z,99440.75
